METAR Data
IDs: Format: Raw Decoded Include TAF

Data at: 1126 UTC 24 May 2022

KHWD 241054Z 08003KT 10SM CLR 13/08 A2985 RMK AO2 SLP116 T01280083
No TAF found for KHWD

KBFL 241054Z AUTO 10004KT 8SM CLR 22/04 A2981 RMK AO2 SLP088 T02170039 TSNO

KBFL 241120Z 2412/2512 VRB04KT P6SM SKC
  FM242000 30009KT P6SM SKC
  FM250300 VRB04KT P6SM SKC


KIFP 241115Z AUTO 02017G27KT 10SM CLR 27/M09 A2974 RMK AO2

KIFP 241120Z 2412/2512 36015G25KT P6SM SKC
  FM250100 01010KT P6SM SKC
  FM250500 VRB06KT P6SM SKC